createdAt,value
2023-04-18T00:00:27.021Z,43.14
2023-04-18T00:02:55.103Z,43.07
2023-04-18T00:05:21.971Z,43.12
2023-04-18T00:07:48.506Z,43.05
2023-04-18T00:10:15.106Z,43.07
2023-04-18T00:12:41.503Z,43.04
2023-04-18T00:15:08.983Z,42.99
2023-04-18T00:17:35.848Z,42.96
2023-04-18T00:20:07.348Z,42.65
2023-04-18T00:22:33.789Z,42.90
2023-04-18T00:25:00.341Z,42.86
2023-04-18T00:27:26.874Z,42.68
2023-04-18T00:29:53.334Z,42.71
2023-04-18T00:32:19.866Z,42.68
2023-04-18T00:34:46.405Z,42.59
2023-04-18T00:37:12.818Z,42.66
2023-04-18T00:39:39.226Z,42.51
2023-04-18T00:42:05.889Z,42.51
2023-04-18T00:44:32.372Z,42.50
2023-04-18T00:46:58.877Z,42.55
2023-04-18T00:49:25.742Z,42.47
2023-04-18T00:51:53.425Z,42.59
2023-04-18T00:54:20.066Z,42.46
2023-04-18T00:56:46.920Z,42.57
2023-04-18T00:59:13.534Z,42.55
2023-04-18T01:01:40.343Z,42.51
2023-04-18T01:04:08.140Z,42.59
2023-04-18T01:06:35.290Z,42.44
2023-04-18T01:09:02.324Z,42.42
2023-04-18T01:11:28.744Z,42.27
2023-04-18T01:14:01.854Z,42.45
2023-04-18T01:16:34.410Z,42.60
2023-04-18T01:19:01.673Z,42.68
2023-04-18T01:21:31.248Z,42.63
2023-04-18T01:24:01.800Z,42.60
2023-04-18T01:26:29.165Z,42.54
2023-04-18T01:28:55.632Z,42.59
2023-04-18T01:31:22.228Z,42.49
2023-04-18T01:33:48.707Z,42.56
2023-04-18T01:36:15.263Z,42.42
2023-04-18T01:38:41.644Z,42.45
2023-04-18T01:41:08.046Z,42.49
2023-04-18T01:43:34.449Z,42.46
2023-04-18T01:46:00.951Z,42.33
2023-04-18T01:48:27.402Z,42.41
2023-04-18T01:50:53.857Z,42.32
2023-04-18T01:53:20.356Z,42.28
2023-04-18T01:55:49.238Z,42.24
2023-04-18T01:58:16.248Z,42.21
2023-04-18T02:00:43.002Z,42.15
2023-04-18T02:03:09.501Z,42.17
2023-04-18T02:05:36.220Z,42.12
2023-04-18T02:08:02.691Z,42.10
2023-04-18T02:10:29.179Z,42.12
2023-04-18T02:12:55.609Z,41.98
2023-04-18T02:15:23.597Z,41.99
2023-04-18T02:17:50.619Z,42.02
2023-04-18T02:20:17.125Z,41.82
2023-04-18T02:22:46.986Z,41.91
2023-04-18T02:25:13.590Z,41.79
2023-04-18T02:27:40.385Z,41.80
2023-04-18T02:30:07.262Z,41.75
2023-04-18T02:32:33.748Z,41.77
2023-04-18T02:35:00.246Z,41.86
2023-04-18T02:37:26.621Z,41.92
2023-04-18T02:39:53.207Z,41.93
2023-04-18T02:42:19.645Z,41.87
2023-04-18T02:44:46.031Z,41.94
2023-04-18T02:47:12.465Z,41.83
2023-04-18T02:49:38.885Z,41.83
2023-04-18T02:52:05.458Z,41.89
2023-04-18T02:54:31.876Z,41.83
2023-04-18T02:56:58.274Z,41.85
2023-04-18T02:59:24.688Z,41.88
2023-04-18T03:01:51.098Z,41.92
2023-04-18T03:04:17.623Z,41.83
2023-04-18T03:06:44.136Z,41.83
2023-04-18T03:09:10.738Z,41.86
2023-04-18T03:11:37.095Z,41.87
2023-04-18T03:14:03.534Z,41.75
2023-04-18T03:16:30.139Z,41.68
2023-04-18T03:18:56.554Z,41.68
2023-04-18T03:21:22.970Z,41.63
2023-04-18T03:23:49.628Z,41.59
2023-04-18T03:26:16.096Z,41.50
2023-04-18T03:28:42.595Z,41.51
2023-04-18T03:31:09.171Z,41.59
2023-04-18T03:33:35.715Z,41.57
2023-04-18T03:36:02.190Z,41.56
2023-04-18T03:38:28.698Z,41.54
2023-04-18T03:40:55.119Z,41.61
2023-04-18T03:43:21.547Z,41.55
2023-04-18T03:45:48.186Z,41.52
2023-04-18T03:48:14.719Z,41.60
2023-04-18T03:50:41.295Z,41.47
2023-04-18T03:53:07.778Z,41.57
2023-04-18T03:55:34.344Z,41.47
2023-04-18T03:58:01.101Z,41.47
2023-04-18T04:00:27.505Z,41.46
2023-04-18T04:02:54.205Z,41.54
2023-04-18T04:05:20.877Z,41.50
2023-04-18T04:07:47.345Z,41.52
2023-04-18T04:10:13.865Z,41.49
2023-04-18T04:12:40.499Z,41.30
2023-04-18T04:15:07.087Z,41.50
2023-04-18T04:17:33.547Z,41.60
2023-04-18T04:19:59.985Z,41.52
2023-04-18T04:22:26.801Z,41.51
2023-04-18T04:24:53.181Z,41.39
2023-04-18T04:27:20.482Z,41.40
2023-04-18T04:29:46.899Z,41.31
2023-04-18T04:32:13.671Z,41.50
2023-04-18T04:34:41.466Z,41.42
2023-04-18T04:37:08.317Z,41.41
2023-04-18T04:39:34.718Z,41.41
2023-04-18T04:42:04.555Z,41.41
2023-04-18T04:44:31.183Z,41.43
2023-04-18T04:46:57.568Z,41.40
2023-04-18T04:49:24.082Z,41.33
2023-04-18T04:51:50.615Z,41.44
2023-04-18T04:54:17.172Z,41.50
2023-04-18T04:56:43.575Z,41.33
2023-04-18T04:59:10.045Z,41.45
2023-04-18T05:01:36.888Z,41.40
2023-04-18T05:04:03.976Z,41.39
2023-04-18T05:06:30.645Z,41.48
2023-04-18T05:08:59.467Z,41.35
2023-04-18T05:11:25.933Z,41.35
2023-04-18T05:13:52.467Z,41.27
2023-04-18T05:16:18.941Z,41.28
2023-04-18T05:18:45.409Z,41.21
2023-04-18T05:21:11.866Z,41.17
2023-04-18T05:23:38.310Z,41.16
2023-04-18T05:26:05.078Z,41.17
2023-04-18T05:28:31.702Z,41.06
2023-04-18T05:31:01.330Z,41.10
2023-04-18T05:33:28.654Z,41.00
2023-04-18T05:35:55.768Z,41.11
2023-04-18T05:38:22.210Z,41.08
2023-04-18T05:40:51.061Z,40.93
2023-04-18T05:43:20.701Z,40.99
2023-04-18T05:45:47.190Z,41.07
2023-04-18T05:48:13.812Z,41.12
2023-04-18T05:50:40.571Z,41.23
2023-04-18T05:53:07.020Z,41.17
2023-04-18T05:55:34.440Z,41.52
2023-04-18T05:58:01.253Z,41.83
2023-04-18T06:00:28.311Z,42.49
2023-04-18T06:02:54.972Z,42.72
2023-04-18T06:05:21.961Z,42.93
2023-04-18T06:07:48.506Z,42.99
2023-04-18T06:10:15.803Z,42.92
2023-04-18T06:12:42.453Z,43.14
2023-04-18T06:15:09.643Z,43.11
2023-04-18T06:17:36.294Z,43.17
2023-04-18T06:20:04.081Z,42.78
2023-04-18T06:22:30.486Z,43.19
2023-04-18T06:24:57.056Z,43.45
2023-04-18T06:27:31.151Z,43.40
2023-04-18T06:29:58.509Z,43.39
2023-04-18T06:32:25.503Z,42.88
2023-04-18T06:34:53.036Z,41.92
2023-04-18T06:37:19.889Z,42.29
2023-04-18T06:39:46.504Z,42.46
2023-04-18T06:42:13.096Z,41.96
2023-04-18T06:44:39.653Z,41.80
2023-04-18T06:47:06.177Z,41.70
2023-04-18T06:49:32.589Z,41.65
2023-04-18T06:51:59.023Z,41.54
2023-04-18T06:54:25.609Z,41.54
2023-04-18T06:56:52.589Z,41.67
2023-04-18T06:59:21.391Z,41.43
2023-04-18T07:01:47.881Z,41.78
2023-04-18T07:04:14.715Z,41.73
2023-04-18T07:06:42.257Z,41.84
2023-04-18T07:09:08.822Z,41.75
2023-04-18T07:11:35.300Z,41.49
2023-04-18T07:14:01.698Z,41.53
2023-04-18T07:16:28.209Z,41.44
2023-04-18T07:18:54.612Z,41.31
2023-04-18T07:21:21.037Z,41.43
2023-04-18T07:23:47.478Z,41.69
2023-04-18T07:26:14.021Z,41.72
2023-04-18T07:28:40.644Z,41.72
2023-04-18T07:31:11.217Z,41.50
2023-04-18T07:33:38.222Z,41.62
2023-04-18T07:36:04.841Z,41.53
2023-04-18T07:38:31.342Z,41.57
2023-04-18T07:40:58.184Z,41.59
2023-04-18T07:43:24.635Z,41.67
2023-04-18T07:45:51.687Z,41.47
2023-04-18T07:48:18.325Z,41.52
2023-04-18T07:50:44.723Z,41.69
2023-04-18T07:53:11.148Z,41.64
2023-04-18T07:55:37.575Z,41.49
2023-04-18T07:58:04.045Z,41.73
2023-04-18T08:00:32.682Z,41.67
2023-04-18T08:02:59.309Z,41.72
2023-04-18T08:05:26.148Z,41.82
2023-04-18T08:07:52.903Z,41.76
2023-04-18T08:10:20.863Z,41.74
2023-04-18T08:12:48.268Z,41.73
2023-04-18T08:15:14.804Z,41.90
2023-04-18T08:17:43.884Z,41.77
2023-04-18T08:20:10.886Z,41.72
2023-04-18T08:22:46.792Z,41.55
2023-04-18T08:25:24.948Z,41.86
2023-04-18T08:27:51.489Z,41.51
2023-04-18T08:30:18.058Z,41.93
2023-04-18T08:32:44.585Z,41.78
2023-04-18T08:35:11.069Z,42.04
2023-04-18T08:37:37.514Z,41.45
2023-04-18T08:40:05.177Z,40.57
2023-04-18T08:42:31.882Z,39.39
2023-04-18T08:44:58.894Z,39.34
2023-04-18T08:47:25.838Z,39.58
2023-04-18T08:49:53.806Z,39.56
2023-04-18T08:52:21.603Z,39.52
2023-04-18T08:54:49.099Z,39.79
2023-04-18T08:57:16.748Z,39.41
2023-04-18T08:59:46.333Z,39.20
2023-04-18T09:02:15.925Z,39.18
2023-04-18T09:04:44.987Z,39.17
2023-04-18T09:07:12.391Z,39.26
2023-04-18T09:09:52.329Z,39.31
2023-04-18T09:12:22.799Z,39.33
2023-04-18T09:14:51.161Z,39.28
2023-04-18T09:17:37.859Z,39.35
2023-04-18T09:20:10.546Z,39.15
2023-04-18T09:23:03.844Z,39.29
2023-04-18T09:25:34.900Z,39.19
2023-04-18T09:28:02.252Z,39.29
2023-04-18T09:30:39.525Z,39.21
2023-04-18T09:33:09.403Z,39.14
2023-04-18T09:35:36.960Z,39.37
2023-04-18T09:38:03.448Z,39.13
2023-04-18T09:40:30.357Z,39.15
2023-04-18T09:42:57.057Z,39.12
2023-04-18T09:45:24.161Z,39.24
2023-04-18T09:47:51.096Z,39.30
2023-04-18T09:50:18.499Z,39.07
2023-04-18T09:52:45.569Z,39.01
2023-04-18T09:55:13.810Z,38.98
2023-04-18T09:57:42.416Z,39.12
2023-04-18T10:00:17.338Z,39.10
2023-04-18T10:02:56.603Z,39.17
2023-04-18T10:05:25.339Z,39.18
2023-04-18T10:07:52.946Z,39.11
2023-04-18T10:10:19.537Z,39.15
2023-04-18T10:12:48.196Z,39.18
2023-04-18T10:15:15.790Z,38.99
2023-04-18T10:18:02.856Z,39.23
2023-04-18T10:20:31.649Z,39.22
2023-04-18T10:22:58.723Z,39.15
2023-04-18T10:25:34.243Z,39.23
2023-04-18T10:28:01.594Z,39.24
2023-04-18T10:30:40.457Z,39.28
2023-04-18T10:33:31.014Z,39.44
2023-04-18T10:36:11.509Z,39.33
2023-04-18T10:38:47.577Z,39.35
2023-04-18T10:41:17.064Z,39.40
2023-04-18T10:44:02.378Z,39.46
2023-04-18T10:46:32.530Z,39.29
2023-04-18T10:49:15.256Z,39.50
2023-04-18T10:51:42.313Z,39.38
2023-04-18T10:54:10.849Z,39.52
2023-04-18T10:56:37.619Z,39.37
2023-04-18T10:59:04.905Z,39.36
2023-04-18T11:01:33.308Z,39.56
2023-04-18T11:04:00.352Z,39.37
2023-04-18T11:06:27.802Z,39.35
2023-04-18T11:09:13.779Z,39.61
2023-04-18T11:11:41.519Z,39.57
2023-04-18T11:14:08.090Z,39.64
2023-04-18T11:16:34.605Z,39.61
2023-04-18T11:19:01.075Z,39.57
2023-04-18T11:21:31.629Z,39.57
2023-04-18T11:23:58.622Z,39.58
2023-04-18T11:26:25.950Z,39.62
2023-04-18T11:28:53.116Z,39.62
2023-04-18T11:31:22.054Z,39.73
2023-04-18T11:33:48.451Z,39.83
2023-04-18T11:36:14.850Z,39.65
2023-04-18T11:38:41.989Z,39.72
2023-04-18T11:41:15.232Z,39.88
2023-04-18T11:43:46.269Z,39.83
2023-04-18T11:46:13.323Z,39.85
2023-04-18T11:48:43.529Z,39.99
2023-04-18T11:51:30.226Z,39.88
2023-04-18T11:53:56.794Z,39.77
2023-04-18T11:56:23.202Z,39.88
2023-04-18T11:58:49.749Z,39.97
2023-04-18T12:01:20.509Z,40.04
2023-04-18T12:04:06.653Z,39.95
2023-04-18T12:06:49.019Z,39.90
2023-04-18T12:09:16.330Z,39.82
2023-04-18T12:11:42.974Z,39.91
2023-04-18T12:14:19.135Z,39.89
2023-04-18T12:16:45.953Z,39.85
2023-04-18T12:19:13.951Z,39.87
2023-04-18T12:22:05.111Z,39.82
2023-04-18T12:24:32.409Z,39.86
2023-04-18T12:26:59.125Z,39.86
2023-04-18T12:29:25.850Z,39.91
2023-04-18T12:31:52.313Z,39.78
2023-04-18T12:34:18.783Z,39.83
2023-04-18T12:36:45.416Z,39.70
2023-04-18T12:39:12.099Z,39.61
2023-04-18T12:41:38.530Z,39.71
2023-04-18T12:44:05.835Z,39.76
2023-04-18T12:46:32.463Z,39.70
2023-04-18T12:48:58.922Z,39.71
2023-04-18T12:51:26.550Z,39.63
2023-04-18T12:53:52.950Z,39.65
2023-04-18T12:56:19.583Z,39.47
2023-04-18T12:58:45.963Z,39.46
2023-04-18T13:01:14.135Z,39.51
2023-04-18T13:03:41.323Z,39.38
2023-04-18T13:06:08.819Z,39.53
2023-04-18T13:08:35.364Z,39.55
2023-04-18T13:11:01.836Z,39.57
2023-04-18T13:13:28.238Z,39.43
2023-04-18T13:15:54.620Z,39.44
2023-04-18T13:18:21.627Z,39.47
2023-04-18T13:20:49.616Z,39.56
2023-04-18T13:23:16.021Z,39.65
2023-04-18T13:25:42.470Z,39.61
2023-04-18T13:28:08.937Z,39.50
2023-04-18T13:30:35.818Z,39.42
2023-04-18T13:33:02.524Z,39.54
2023-04-18T13:35:29.030Z,39.55
2023-04-18T13:37:56.000Z,39.48
2023-04-18T13:40:22.487Z,39.49
2023-04-18T13:42:48.883Z,39.57
2023-04-18T13:45:15.598Z,39.54
2023-04-18T13:47:42.144Z,39.49
2023-04-18T13:50:09.042Z,39.69
2023-04-18T13:52:36.264Z,39.49
2023-04-18T13:55:02.720Z,39.86
2023-04-18T13:57:32.085Z,39.79
2023-04-18T13:59:58.625Z,39.85
2023-04-18T14:02:25.242Z,39.86
2023-04-18T14:04:52.350Z,39.78
2023-04-18T14:07:18.900Z,39.81
2023-04-18T14:09:46.035Z,39.86
2023-04-18T14:12:12.446Z,39.85
2023-04-18T14:14:38.890Z,39.72
2023-04-18T14:17:05.313Z,39.61
2023-04-18T14:19:31.748Z,39.78
2023-04-18T14:21:58.207Z,39.65
2023-04-18T14:24:24.924Z,39.80
2023-04-18T14:26:51.362Z,39.67
2023-04-18T14:29:17.841Z,39.75
2023-04-18T14:31:44.420Z,39.67
2023-04-18T14:34:10.882Z,39.77
2023-04-18T14:36:37.345Z,39.74
2023-04-18T14:39:04.631Z,39.73
2023-04-18T14:41:31.139Z,39.82
2023-04-18T14:43:57.573Z,39.79
2023-04-18T14:46:24.087Z,39.69
2023-04-18T14:48:50.930Z,39.88
2023-04-18T14:51:17.799Z,39.88
2023-04-18T14:53:44.889Z,39.81
2023-04-18T14:56:11.339Z,39.84
2023-04-18T14:58:37.813Z,39.57
2023-04-18T15:01:04.442Z,39.77
2023-04-18T15:03:31.103Z,39.61
2023-04-18T15:05:57.755Z,39.75
2023-04-18T15:08:24.176Z,39.69
2023-04-18T15:10:50.596Z,39.88
2023-04-18T15:13:17.266Z,39.70
2023-04-18T15:15:50.889Z,39.88
2023-04-18T15:18:17.277Z,39.95
2023-04-18T15:20:43.684Z,39.96
2023-04-18T15:23:13.596Z,39.75
2023-04-18T15:25:40.625Z,39.85
2023-04-18T15:28:07.126Z,39.79
2023-04-18T15:30:33.532Z,39.72
2023-04-18T15:33:00.238Z,39.91
2023-04-18T15:35:26.761Z,39.64
2023-04-18T15:37:54.037Z,39.85
2023-04-18T15:40:20.634Z,39.66
2023-04-18T15:42:49.398Z,39.73
2023-04-18T15:45:15.923Z,39.75
2023-04-18T15:47:42.381Z,39.71
2023-04-18T15:50:09.160Z,39.93
2023-04-18T15:52:36.581Z,39.80
2023-04-18T15:55:03.800Z,39.71
2023-04-18T15:57:30.496Z,39.81
2023-04-18T15:59:58.462Z,39.97
2023-04-18T16:02:25.350Z,39.89
2023-04-18T16:04:51.932Z,39.88
2023-04-18T16:07:18.384Z,39.76
2023-04-18T16:09:44.861Z,39.82
2023-04-18T16:12:11.290Z,39.74
2023-04-18T16:14:37.701Z,39.78
2023-04-18T16:17:04.127Z,39.63
2023-04-18T16:19:30.785Z,39.86
2023-04-18T16:21:57.407Z,39.68
2023-04-18T16:24:25.543Z,39.86
2023-04-18T16:26:53.503Z,39.85
2023-04-18T16:29:19.946Z,39.92
2023-04-18T16:31:46.580Z,39.62
2023-04-18T16:34:13.692Z,39.79
2023-04-18T16:36:40.260Z,39.73
2023-04-18T16:39:06.681Z,39.78
2023-04-18T16:41:33.075Z,39.84
2023-04-18T16:43:59.497Z,39.56
2023-04-18T16:46:25.981Z,39.66
2023-04-18T16:48:52.679Z,39.58
2023-04-18T16:51:19.237Z,39.74
2023-04-18T16:53:46.729Z,39.73
2023-04-18T16:56:13.138Z,39.60
2023-04-18T16:58:39.654Z,39.69
2023-04-18T17:01:08.243Z,39.69
2023-04-18T17:03:34.815Z,39.42
2023-04-18T17:06:01.726Z,39.53
2023-04-18T17:08:28.781Z,39.62
2023-04-18T17:10:55.414Z,39.51
2023-04-18T17:13:26.747Z,39.66
2023-04-18T17:15:53.452Z,39.80
2023-04-18T17:18:19.837Z,39.74
2023-04-18T17:20:46.321Z,39.91
2023-04-18T17:23:12.792Z,39.68
2023-04-18T17:25:39.226Z,39.58
2023-04-18T17:28:05.618Z,39.71
2023-04-18T17:30:32.079Z,39.56
2023-04-18T17:32:58.542Z,39.62
2023-04-18T17:35:25.056Z,39.64
2023-04-18T17:37:52.868Z,39.47
2023-04-18T17:40:19.348Z,39.58
2023-04-18T17:42:45.735Z,39.37
2023-04-18T17:45:12.203Z,39.25
2023-04-18T17:47:38.876Z,39.38
2023-04-18T17:50:05.948Z,39.29
2023-04-18T17:52:32.584Z,39.18
2023-04-18T17:54:59.622Z,39.34
2023-04-18T17:57:26.696Z,39.12
2023-04-18T17:59:53.549Z,39.06
2023-04-18T18:02:20.350Z,39.05
2023-04-18T18:04:47.214Z,39.03
2023-04-18T18:07:13.718Z,39.04
2023-04-18T18:09:41.607Z,38.91
2023-04-18T18:12:09.740Z,38.85
2023-04-18T18:14:36.508Z,39.04
2023-04-18T18:17:03.141Z,38.98
2023-04-18T18:19:29.548Z,38.82
2023-04-18T18:21:56.028Z,38.72
2023-04-18T18:24:22.449Z,38.70
2023-04-18T18:26:50.994Z,38.48
2023-04-18T18:29:19.262Z,38.41
2023-04-18T18:31:45.907Z,38.50
2023-04-18T18:34:12.401Z,38.33
2023-04-18T18:36:39.032Z,38.30
2023-04-18T18:39:05.474Z,38.16
2023-04-18T18:41:31.888Z,38.03
2023-04-18T18:43:58.338Z,38.03
2023-04-18T18:46:25.010Z,38.07
2023-04-18T18:48:51.916Z,37.86
2023-04-18T18:51:19.108Z,37.85
2023-04-18T18:53:46.645Z,37.70
2023-04-18T18:56:13.190Z,37.64
2023-04-18T18:58:40.386Z,37.56
2023-04-18T19:01:09.215Z,37.58
2023-04-18T19:03:35.775Z,37.63
2023-04-18T19:06:04.079Z,37.49
2023-04-18T19:08:30.893Z,37.68
2023-04-18T19:10:57.353Z,37.36
2023-04-18T19:13:24.192Z,37.46
2023-04-18T19:15:51.135Z,37.52
2023-04-18T19:18:20.062Z,37.55
2023-04-18T19:20:46.571Z,37.39
2023-04-18T19:23:13.060Z,37.46
2023-04-18T19:25:39.487Z,37.34
2023-04-18T19:28:05.973Z,37.32
2023-04-18T19:30:32.574Z,37.23
2023-04-18T19:32:59.410Z,37.23
2023-04-18T19:35:25.852Z,37.23
2023-04-18T19:37:52.340Z,37.25
2023-04-18T19:40:18.852Z,37.21
2023-04-18T19:42:46.110Z,37.25
2023-04-18T19:45:15.061Z,37.17
2023-04-18T19:47:43.920Z,37.04
2023-04-18T19:50:10.976Z,37.18
2023-04-18T19:52:37.522Z,37.06
2023-04-18T19:55:04.028Z,36.89
2023-04-18T19:57:30.680Z,36.95
2023-04-18T19:59:57.061Z,36.93
2023-04-18T20:02:23.678Z,36.93
2023-04-18T20:04:50.637Z,36.87
2023-04-18T20:07:17.100Z,36.94
2023-04-18T20:09:43.502Z,36.93
2023-04-18T20:12:09.997Z,36.90
2023-04-18T20:14:36.417Z,36.92
2023-04-18T20:17:02.858Z,36.88
2023-04-18T20:19:29.606Z,36.92
2023-04-18T20:21:56.073Z,36.95
2023-04-18T20:24:23.835Z,36.98
2023-04-18T20:26:51.403Z,36.84
2023-04-18T20:29:17.856Z,36.91
2023-04-18T20:31:44.286Z,36.79
2023-04-18T20:34:11.001Z,36.91
2023-04-18T20:36:41.472Z,36.84
2023-04-18T20:39:08.598Z,36.85
2023-04-18T20:41:36.539Z,36.78
2023-04-18T20:44:06.649Z,36.83
2023-04-18T20:46:33.337Z,36.84
2023-04-18T20:48:59.915Z,36.61
2023-04-18T20:51:26.924Z,36.68
2023-04-18T20:53:53.392Z,36.63
2023-04-18T20:56:20.225Z,37.03
2023-04-18T20:58:46.887Z,38.32
2023-04-18T21:01:13.386Z,38.92
2023-04-18T21:03:39.941Z,39.28
2023-04-18T21:06:06.487Z,39.09
2023-04-18T21:08:35.203Z,39.35
2023-04-18T21:11:01.704Z,39.38
2023-04-18T21:13:28.177Z,39.38
2023-04-18T21:15:57.061Z,39.25
2023-04-18T21:18:23.817Z,39.31
2023-04-18T21:20:50.499Z,39.65
2023-04-18T21:23:16.960Z,39.72
2023-04-18T21:25:43.373Z,39.40
2023-04-18T21:28:09.778Z,39.34
2023-04-18T21:30:36.569Z,39.47
2023-04-18T21:33:03.284Z,39.30
2023-04-18T21:35:30.080Z,39.38
2023-04-18T21:37:56.803Z,39.16
2023-04-18T21:40:24.304Z,38.96
2023-04-18T21:42:53.717Z,38.87
2023-04-18T21:45:20.198Z,38.95
2023-04-18T21:47:47.001Z,38.95
2023-04-18T21:50:13.492Z,38.88
2023-04-18T21:52:39.927Z,38.75
2023-04-18T21:55:06.510Z,38.77
2023-04-18T21:57:32.946Z,38.74
2023-04-18T21:59:59.374Z,38.61
2023-04-18T22:02:26.770Z,38.68
2023-04-18T22:04:53.393Z,38.63
2023-04-18T22:07:20.137Z,38.49
2023-04-18T22:09:46.713Z,38.42
2023-04-18T22:12:16.299Z,38.43
2023-04-18T22:14:44.526Z,38.48
2023-04-18T22:17:10.939Z,38.38
2023-04-18T22:19:37.451Z,38.23
2023-04-18T22:22:03.871Z,38.46
2023-04-18T22:24:30.327Z,38.31
2023-04-18T22:26:56.822Z,38.58
2023-04-18T22:29:23.195Z,38.37
2023-04-18T22:31:49.716Z,38.76
2023-04-18T22:34:16.275Z,39.24
2023-04-18T22:36:43.931Z,39.21
2023-04-18T22:39:12.147Z,38.82
2023-04-18T22:41:38.954Z,38.65
2023-04-18T22:44:05.640Z,38.64
2023-04-18T22:46:32.993Z,38.49
2023-04-18T22:48:59.676Z,38.09
2023-04-18T22:51:28.634Z,38.05
2023-04-18T22:53:55.866Z,38.13
2023-04-18T22:56:22.272Z,37.90
2023-04-18T22:58:48.718Z,37.58
2023-04-18T23:01:15.317Z,37.53
2023-04-18T23:03:41.899Z,37.50
2023-04-18T23:06:08.573Z,37.38
2023-04-18T23:08:34.999Z,37.23
2023-04-18T23:11:01.888Z,37.25
2023-04-18T23:13:28.335Z,36.93
2023-04-18T23:15:54.767Z,36.78
2023-04-18T23:18:21.236Z,36.85
2023-04-18T23:20:47.673Z,36.87
2023-04-18T23:23:14.121Z,36.75
2023-04-18T23:25:40.960Z,36.52
2023-04-18T23:28:07.976Z,36.56
2023-04-18T23:30:35.866Z,36.47
2023-04-18T23:33:02.379Z,36.44
2023-04-18T23:35:28.787Z,36.18
2023-04-18T23:37:55.226Z,36.35
2023-04-18T23:40:21.803Z,36.30
2023-04-18T23:42:48.281Z,36.03
2023-04-18T23:45:14.739Z,36.17
2023-04-18T23:47:41.485Z,35.99
2023-04-18T23:50:08.333Z,35.88
2023-04-18T23:52:34.818Z,35.65
2023-04-18T23:55:01.570Z,35.71
2023-04-18T23:57:28.069Z,35.71
2023-04-18T23:59:54.573Z,35.68
